Opari — 9HA3535 — position and weather

sailwx.info

Track history (hours):
 
Tides and Currents Weather Stations Pressure Air Temp Water Temp Dewpoint Dewpoint Depression Visibility Wind Speed Wind Dir Waves Ship Positions

Opari

Last reported at 2017-Oct-15 15:49 UTC. Time now 2017-Nov-20 00:33 UTC.
Position N 37°56' E 023°39'.
Warning: this ship's position is 35 days out of date.

Length 41 m; draft 3 m.

Type: Pleasure craft. MMSI: 229709000.

Date/timePositionNaut miles runAvg speedWind from/ knotsBaromVisibWave heightAir tempDewpointWater temp
2017-Oct-15 15:49N 37°56' E 023°39'0 0.0
2017-Oct-15 15:30N 37°56' E 023°39'2 4.6
2017-Oct-15 15:00N 37°54' E 023°39'1413.6
2017-Oct-15 14:00N 37°41' E 023°32'3 0.4
2017-Oct-15 05:31N 37°41' E 023°27'113.4
2017-Oct-15 05:25N 37°39' E 023°27'613.7
2017-Oct-15 05:00N 37°34' E 023°26'4 6.5
2017-Oct-15 04:25N 37°30' E 023°27'0 0.0
2017-Oct-15 03:46N 37°30' E 023°27'0 0.0
2017-Oct-15 03:22N 37°30' E 023°27'0 0.0
2017-Oct-15 03:00N 37°30' E 023°27'0 0.0
2017-Oct-15 02:25N 37°30' E 023°27'0 0.0
2017-Oct-14 22:06N 37°30' E 023°27'0 0.0
2017-Oct-14 21:41N 37°30' E 023°27'0 0.0
2017-Oct-14 21:00N 37°30' E 023°27'0 0.0
2017-Oct-14 20:31N 37°30' E 023°27'0 0.0
2017-Oct-14 20:00N 37°30' E 023°27'0 0.0
2017-Oct-14 19:30N 37°30' E 023°27'0 0.0
2017-Oct-14 18:56N 37°30' E 023°27'0 0.0
2017-Oct-14 18:30N 37°30' E 023°27'0 0.0
2017-Oct-14 17:58N 37°30' E 023°27'0 0.0
2017-Oct-14 15:18N 37°30' E 023°27'1 0.1
2017-Oct-14 09:17N 37°30' E 023°28'1 2.6
2017-Oct-14 08:59N 37°30' E 023°27'0 0.0
2017-Oct-14 08:29N 37°30' E 023°27'0 0.0
2017-Oct-14 07:58N 37°30' E 023°27'0 0.0
2017-Oct-14 07:27N 37°30' E 023°27'0 0.0
2017-Oct-14 06:54N 37°30' E 023°27'0 0.0
2017-Oct-14 06:21N 37°30' E 023°27'0 0.0
2017-Oct-14 05:50N 37°30' E 023°27'0 0.0
2017-Oct-14 05:22N 37°30' E 023°27'0 0.0
2017-Oct-14 04:58N 37°30' E 023°27'0 0.0
2017-Oct-14 04:28N 37°30' E 023°27'0 0.0
2017-Oct-14 03:56N 37°30' E 023°27'0 0.0
2017-Oct-14 03:30N 37°30' E 023°27'0 0.0
2017-Oct-14 03:00N 37°30' E 023°27'0 0.0
2017-Oct-14 02:30N 37°30' E 023°27'0 0.0
2017-Oct-14 02:00N 37°30' E 023°27'0 0.0
2017-Oct-14 01:30N 37°30' E 023°27'0 0.0
2017-Oct-14 01:00N 37°30' E 023°27'0 0.0
2017-Oct-14 00:30N 37°30' E 023°27'0 0.0
2017-Oct-14 00:00N 37°30' E 023°27'0 0.0
2017-Oct-13 23:30N 37°30' E 023°27'0 0.0
2017-Oct-13 23:00N 37°30' E 023°27'0 0.0
2017-Oct-13 22:30N 37°30' E 023°27'0 0.0
2017-Oct-13 22:00N 37°30' E 023°27'0 0.0
2017-Oct-13 21:30N 37°30' E 023°27'0 0.0
2017-Oct-13 21:00N 37°30' E 023°27'0 0.0
2017-Oct-13 20:30N 37°30' E 023°27'0 0.0
2017-Oct-13 20:00N 37°30' E 023°27'0 0.0
2017-Oct-13 19:30N 37°30' E 023°27'0 0.0
2017-Oct-13 19:00N 37°30' E 023°27'0 0.0
2017-Oct-13 18:30N 37°30' E 023°27'0 0.0
2017-Oct-13 18:00N 37°30' E 023°27'2 4.9
2017-Oct-13 17:30N 37°32' E 023°25'613.0
2017-Oct-13 17:00N 37°39' E 023°25'5 1.3
2017-Oct-13 13:37N 37°41' E 023°19'1 4.7
2017-Oct-13 13:30N 37°41' E 023°19'712.8
2017-Oct-13 12:58N 37°46' E 023°25'613.7
2017-Oct-13 12:30N 37°50' E 023°31'713.9
2017-Oct-13 12:00N 37°54' E 023°39'2 4.2
2017-Oct-13 11:30N 37°56' E 023°39'0 0.0
2017-Oct-13 11:00N 37°56' E 023°39'0 0.0
2017-Oct-13 10:30N 37°56' E 023°39'  
2017-Oct-06 03:05N 37°56' E 023°39'0 0.0
2017-Oct-06 03:00N 37°56' E 023°39'1 2.8
2017-Oct-06 02:30N 37°55' E 023°40'713.3
2017-Oct-06 02:00N 37°49' E 023°44'5012.7
2017-Oct-05 22:03N 37°32' E 024°44'113.6
2017-Oct-05 22:00N 37°32' E 024°45'913.4
2017-Oct-05 21:22N 37°32' E 024°55'613.6
2017-Oct-05 20:57N 37°31' E 025°02'613.6
2017-Oct-05 20:30N 37°29' E 025°10'713.5
2017-Oct-05 20:00N 37°28' E 025°18'1 2.6
2017-Oct-05 19:30N 37°27' E 025°20'0 0.0
2017-Oct-05 19:00N 37°27' E 025°20'0 0.0
2017-Oct-05 18:30N 37°27' E 025°20'0 0.0
2017-Oct-05 18:00N 37°27' E 025°20'0 0.0
2017-Oct-05 17:30N 37°27' E 025°20'0 0.0
2017-Oct-05 17:00N 37°27' E 025°20'  
Track history (hours):
 
Tides and Currents Weather Stations Pressure Air Temp Water Temp Dewpoint Dewpoint Depression Visibility Wind Speed Wind Dir Waves Ship Positions

Opari

Last reported at 2017-Oct-15 15:49 UTC. Time now 2017-Nov-20 00:33 UTC.
Position N 37°56' E 023°39'.
Warning: this ship's position is 35 days out of date.

Length 41 m; draft 3 m.

Type: Pleasure craft. MMSI: 229709000.

Date/timePositionNaut miles runAvg speedWind from/ knotsBaromVisibWave heightAir tempDewpointWater temp
2017-Oct-15 15:49N 37°56' E 023°39'0 0.0
2017-Oct-15 15:30N 37°56' E 023°39'2 4.6
2017-Oct-15 15:00N 37°54' E 023°39'1413.6
2017-Oct-15 14:00N 37°41' E 023°32'3 0.4
2017-Oct-15 05:31N 37°41' E 023°27'113.4
2017-Oct-15 05:25N 37°39' E 023°27'613.7
2017-Oct-15 05:00N 37°34' E 023°26'4 6.5
2017-Oct-15 04:25N 37°30' E 023°27'0 0.0
2017-Oct-15 03:46N 37°30' E 023°27'0 0.0
2017-Oct-15 03:22N 37°30' E 023°27'0 0.0
2017-Oct-15 03:00N 37°30' E 023°27'0 0.0
2017-Oct-15 02:25N 37°30' E 023°27'0 0.0
2017-Oct-14 22:06N 37°30' E 023°27'0 0.0
2017-Oct-14 21:41N 37°30' E 023°27'0 0.0
2017-Oct-14 21:00N 37°30' E 023°27'0 0.0
2017-Oct-14 20:31N 37°30' E 023°27'0 0.0
2017-Oct-14 20:00N 37°30' E 023°27'0 0.0
2017-Oct-14 19:30N 37°30' E 023°27'0 0.0
2017-Oct-14 18:56N 37°30' E 023°27'0 0.0
2017-Oct-14 18:30N 37°30' E 023°27'0 0.0
2017-Oct-14 17:58N 37°30' E 023°27'0 0.0
2017-Oct-14 15:18N 37°30' E 023°27'1 0.1
2017-Oct-14 09:17N 37°30' E 023°28'1 2.6
2017-Oct-14 08:59N 37°30' E 023°27'0 0.0
2017-Oct-14 08:29N 37°30' E 023°27'0 0.0
2017-Oct-14 07:58N 37°30' E 023°27'0 0.0
2017-Oct-14 07:27N 37°30' E 023°27'0 0.0
2017-Oct-14 06:54N 37°30' E 023°27'0 0.0
2017-Oct-14 06:21N 37°30' E 023°27'0 0.0
2017-Oct-14 05:50N 37°30' E 023°27'0 0.0
2017-Oct-14 05:22N 37°30' E 023°27'0 0.0
2017-Oct-14 04:58N 37°30' E 023°27'0 0.0
2017-Oct-14 04:28N 37°30' E 023°27'0 0.0
2017-Oct-14 03:56N 37°30' E 023°27'0 0.0
2017-Oct-14 03:30N 37°30' E 023°27'0 0.0
2017-Oct-14 03:00N 37°30' E 023°27'0 0.0
2017-Oct-14 02:30N 37°30' E 023°27'0 0.0
2017-Oct-14 02:00N 37°30' E 023°27'0 0.0
2017-Oct-14 01:30N 37°30' E 023°27'0 0.0
2017-Oct-14 01:00N 37°30' E 023°27'0 0.0
2017-Oct-14 00:30N 37°30' E 023°27'0 0.0
2017-Oct-14 00:00N 37°30' E 023°27'0 0.0
2017-Oct-13 23:30N 37°30' E 023°27'0 0.0
2017-Oct-13 23:00N 37°30' E 023°27'0 0.0
2017-Oct-13 22:30N 37°30' E 023°27'0 0.0
2017-Oct-13 22:00N 37°30' E 023°27'0 0.0
2017-Oct-13 21:30N 37°30' E 023°27'0 0.0
2017-Oct-13 21:00N 37°30' E 023°27'0 0.0
2017-Oct-13 20:30N 37°30' E 023°27'0 0.0
2017-Oct-13 20:00N 37°30' E 023°27'0 0.0
2017-Oct-13 19:30N 37°30' E 023°27'0 0.0
2017-Oct-13 19:00N 37°30' E 023°27'0 0.0
2017-Oct-13 18:30N 37°30' E 023°27'0 0.0
2017-Oct-13 18:00N 37°30' E 023°27'2 4.9
2017-Oct-13 17:30N 37°32' E 023°25'613.0
2017-Oct-13 17:00N 37°39' E 023°25'5 1.3
2017-Oct-13 13:37N 37°41' E 023°19'1 4.7
2017-Oct-13 13:30N 37°41' E 023°19'712.8
2017-Oct-13 12:58N 37°46' E 023°25'613.7
2017-Oct-13 12:30N 37°50' E 023°31'713.9
2017-Oct-13 12:00N 37°54' E 023°39'2 4.2
2017-Oct-13 11:30N 37°56' E 023°39'0 0.0
2017-Oct-13 11:00N 37°56' E 023°39'0 0.0
2017-Oct-13 10:30N 37°56' E 023°39'  
2017-Oct-06 03:05N 37°56' E 023°39'0 0.0
2017-Oct-06 03:00N 37°56' E 023°39'1 2.8
2017-Oct-06 02:30N 37°55' E 023°40'713.3
2017-Oct-06 02:00N 37°49' E 023°44'5012.7
2017-Oct-05 22:03N 37°32' E 024°44'113.6
2017-Oct-05 22:00N 37°32' E 024°45'913.4
2017-Oct-05 21:22N 37°32' E 024°55'613.6
2017-Oct-05 20:57N 37°31' E 025°02'613.6
2017-Oct-05 20:30N 37°29' E 025°10'713.5
2017-Oct-05 20:00N 37°28' E 025°18'1 2.6
2017-Oct-05 19:30N 37°27' E 025°20'0 0.0
2017-Oct-05 19:00N 37°27' E 025°20'0 0.0
2017-Oct-05 18:30N 37°27' E 025°20'0 0.0
2017-Oct-05 18:00N 37°27' E 025°20'0 0.0
2017-Oct-05 17:30N 37°27' E 025°20'0 0.0
2017-Oct-05 17:00N 37°27' E 025°20'  

Dump ship's entire track history